sensor_id;sensor_type;location;lat;lon;timestamp;P1;durP1;ratioP1;P2;durP2;ratioP2
23519;SDS011;11936;50.820;4.336;2023-09-19T00:00:03;6.97;;;1.90;;
23519;SDS011;11936;50.820;4.336;2023-09-19T00:02:31;8.05;;;2.70;;
23519;SDS011;11936;50.820;4.336;2023-09-19T00:04:58;9.05;;;2.30;;
23519;SDS011;11936;50.820;4.336;2023-09-19T00:07:23;10.40;;;2.22;;
23519;SDS011;11936;50.820;4.336;2023-09-19T00:09:49;10.63;;;2.40;;
23519;SDS011;11936;50.820;4.336;2023-09-19T00:12:15;14.02;;;2.75;;
23519;SDS011;11936;50.820;4.336;2023-09-19T00:14:40;19.63;;;2.70;;
23519;SDS011;11936;50.820;4.336;2023-09-19T00:17:06;10.85;;;2.72;;
23519;SDS011;11936;50.820;4.336;2023-09-19T00:19:33;14.70;;;2.28;;
23519;SDS011;11936;50.820;4.336;2023-09-19T00:22:00;12.65;;;2.50;;
23519;SDS011;11936;50.820;4.336;2023-09-19T00:24:26;12.63;;;2.25;;
23519;SDS011;11936;50.820;4.336;2023-09-19T00:26:53;10.63;;;2.88;;
23519;SDS011;11936;50.820;4.336;2023-09-19T00:29:20;13.57;;;2.60;;
23519;SDS011;11936;50.820;4.336;2023-09-19T00:31:46;6.97;;;2.53;;
23519;SDS011;11936;50.820;4.336;2023-09-19T00:34:12;10.60;;;2.83;;
23519;SDS011;11936;50.820;4.336;2023-09-19T00:36:37;10.32;;;2.28;;
23519;SDS011;11936;50.820;4.336;2023-09-19T00:39:08;9.35;;;2.10;;
23519;SDS011;11936;50.820;4.336;2023-09-19T00:41:33;12.05;;;2.20;;
23519;SDS011;11936;50.820;4.336;2023-09-19T00:44:01;14.20;;;2.85;;
23519;SDS011;11936;50.820;4.336;2023-09-19T00:46:28;14.48;;;3.00;;
23519;SDS011;11936;50.820;4.336;2023-09-19T00:48:54;12.85;;;2.47;;
23519;SDS011;11936;50.820;4.336;2023-09-19T00:51:19;14.63;;;2.92;;
23519;SDS011;11936;50.820;4.336;2023-09-19T00:53:48;14.02;;;2.97;;
23519;SDS011;11936;50.820;4.336;2023-09-19T00:56:14;14.90;;;2.78;;
23519;SDS011;11936;50.820;4.336;2023-09-19T00:58:43;10.75;;;2.75;;
23519;SDS011;11936;50.820;4.336;2023-09-19T01:01:09;16.52;;;2.60;;
23519;SDS011;11936;50.820;4.336;2023-09-19T01:03:37;5.70;;;2.00;;
23519;SDS011;11936;50.820;4.336;2023-09-19T01:06:03;10.98;;;2.28;;
23519;SDS011;11936;50.820;4.336;2023-09-19T01:08:28;12.25;;;2.25;;
23519;SDS011;11936;50.820;4.336;2023-09-19T01:11:05;12.75;;;3.00;;
23519;SDS011;11936;50.820;4.336;2023-09-19T01:21:34;10.43;;;2.88;;
23519;SDS011;11936;50.820;4.336;2023-09-19T01:30:21;9.73;;;2.42;;
23519;SDS011;11936;50.820;4.336;2023-09-19T01:32:52;16.90;;;3.00;;
23519;SDS011;11936;50.820;4.336;2023-09-19T01:35:19;10.85;;;2.63;;
23519;SDS011;11936;50.820;4.336;2023-09-19T01:37:44;8.82;;;1.95;;
23519;SDS011;11936;50.820;4.336;2023-09-19T01:40:11;5.63;;;2.17;;
23519;SDS011;11936;50.820;4.336;2023-09-19T01:51:00;9.18;;;2.60;;
23519;SDS011;11936;50.820;4.336;2023-09-19T01:53:29;8.77;;;2.63;;
23519;SDS011;11936;50.820;4.336;2023-09-19T01:56:01;8.90;;;2.30;;
23519;SDS011;11936;50.820;4.336;2023-09-19T01:58:45;9.45;;;2.58;;
23519;SDS011;11936;50.820;4.336;2023-09-19T02:01:15;7.88;;;2.60;;
23519;SDS011;11936;50.820;4.336;2023-09-19T02:03:44;10.45;;;2.60;;
23519;SDS011;11936;50.820;4.336;2023-09-19T02:06:15;9.45;;;2.35;;
23519;SDS011;11936;50.820;4.336;2023-09-19T02:08:42;9.93;;;2.50;;
23519;SDS011;11936;50.820;4.336;2023-09-19T02:11:09;7.78;;;2.35;;
23519;SDS011;11936;50.820;4.336;2023-09-19T02:16:04;9.07;;;2.50;;
23519;SDS011;11936;50.820;4.336;2023-09-19T02:18:31;6.43;;;2.22;;
23519;SDS011;11936;50.820;4.336;2023-09-19T02:20:59;14.90;;;3.05;;
23519;SDS011;11936;50.820;4.336;2023-09-19T02:23:26;14.23;;;3.17;;
23519;SDS011;11936;50.820;4.336;2023-09-19T02:25:55;15.52;;;2.85;;
23519;SDS011;11936;50.820;4.336;2023-09-19T02:28:28;10.73;;;3.08;;
23519;SDS011;11936;50.820;4.336;2023-09-19T02:30:55;14.13;;;2.65;;
23519;SDS011;11936;50.820;4.336;2023-09-19T02:33:21;10.30;;;2.78;;
23519;SDS011;11936;50.820;4.336;2023-09-19T02:35:47;14.13;;;2.97;;
23519;SDS011;11936;50.820;4.336;2023-09-19T02:38:13;7.70;;;3.03;;
23519;SDS011;11936;50.820;4.336;2023-09-19T02:40:39;9.82;;;3.25;;
23519;SDS011;11936;50.820;4.336;2023-09-19T02:43:05;12.75;;;2.42;;
23519;SDS011;11936;50.820;4.336;2023-09-19T02:45:32;14.32;;;3.10;;
23519;SDS011;11936;50.820;4.336;2023-09-19T02:47:57;11.40;;;2.90;;
23519;SDS011;11936;50.820;4.336;2023-09-19T02:50:23;11.77;;;3.40;;
23519;SDS011;11936;50.820;4.336;2023-09-19T02:52:49;12.75;;;2.75;;
23519;SDS011;11936;50.820;4.336;2023-09-19T02:55:15;19.67;;;2.88;;
23519;SDS011;11936;50.820;4.336;2023-09-19T02:57:50;7.70;;;2.33;;
23519;SDS011;11936;50.820;4.336;2023-09-19T03:00:17;12.07;;;2.85;;
23519;SDS011;11936;50.820;4.336;2023-09-19T03:02:47;7.25;;;2.58;;
23519;SDS011;11936;50.820;4.336;2023-09-19T03:05:13;10.80;;;2.70;;
23519;SDS011;11936;50.820;4.336;2023-09-19T03:07:39;7.50;;;2.67;;
23519;SDS011;11936;50.820;4.336;2023-09-19T03:10:07;18.60;;;2.80;;
23519;SDS011;11936;50.820;4.336;2023-09-19T03:12:34;10.02;;;3.13;;
23519;SDS011;11936;50.820;4.336;2023-09-19T03:15:00;12.23;;;2.50;;
23519;SDS011;11936;50.820;4.336;2023-09-19T03:17:26;9.70;;;2.53;;
23519;SDS011;11936;50.820;4.336;2023-09-19T03:19:52;15.43;;;3.22;;
23519;SDS011;11936;50.820;4.336;2023-09-19T03:22:18;10.70;;;2.75;;
23519;SDS011;11936;50.820;4.336;2023-09-19T03:24:44;8.52;;;2.53;;
23519;SDS011;11936;50.820;4.336;2023-09-19T03:27:11;8.60;;;2.63;;
23519;SDS011;11936;50.820;4.336;2023-09-19T03:29:39;6.10;;;1.83;;
23519;SDS011;11936;50.820;4.336;2023-09-19T03:32:07;11.77;;;2.47;;
23519;SDS011;11936;50.820;4.336;2023-09-19T03:34:35;12.75;;;3.65;;
23519;SDS011;11936;50.820;4.336;2023-09-19T03:37:07;6.78;;;2.50;;
23519;SDS011;11936;50.820;4.336;2023-09-19T03:39:32;10.18;;;2.50;;
23519;SDS011;11936;50.820;4.336;2023-09-19T03:41:58;8.02;;;2.45;;
23519;SDS011;11936;50.820;4.336;2023-09-19T03:44:23;15.00;;;3.53;;
23519;SDS011;11936;50.820;4.336;2023-09-19T03:46:49;9.43;;;2.75;;
23519;SDS011;11936;50.820;4.336;2023-09-19T03:49:15;10.40;;;2.95;;
23519;SDS011;11936;50.820;4.336;2023-09-19T03:51:40;16.30;;;2.88;;
23519;SDS011;11936;50.820;4.336;2023-09-19T03:54:06;11.20;;;3.28;;
23519;SDS011;11936;50.820;4.336;2023-09-19T03:56:32;9.30;;;2.47;;
23519;SDS011;11936;50.820;4.336;2023-09-19T03:58:58;16.15;;;3.58;;
23519;SDS011;11936;50.820;4.336;2023-09-19T04:01:24;10.80;;;2.55;;
23519;SDS011;11936;50.820;4.336;2023-09-19T04:03:49;13.95;;;2.80;;
23519;SDS011;11936;50.820;4.336;2023-09-19T04:06:16;13.65;;;3.08;;
23519;SDS011;11936;50.820;4.336;2023-09-19T04:08:43;12.70;;;2.58;;
23519;SDS011;11936;50.820;4.336;2023-09-19T04:11:09;8.75;;;2.35;;
23519;SDS011;11936;50.820;4.336;2023-09-19T04:13:35;11.13;;;2.60;;
23519;SDS011;11936;50.820;4.336;2023-09-19T04:16:01;12.70;;;2.85;;
23519;SDS011;11936;50.820;4.336;2023-09-19T04:18:29;11.00;;;2.35;;
23519;SDS011;11936;50.820;4.336;2023-09-19T04:20:57;8.25;;;2.42;;
23519;SDS011;11936;50.820;4.336;2023-09-19T04:23:23;5.90;;;2.15;;
23519;SDS011;11936;50.820;4.336;2023-09-19T04:25:49;11.35;;;2.67;;
23519;SDS011;11936;50.820;4.336;2023-09-19T04:28:15;11.98;;;2.60;;
23519;SDS011;11936;50.820;4.336;2023-09-19T04:30:41;7.60;;;2.70;;
23519;SDS011;11936;50.820;4.336;2023-09-19T04:33:06;11.30;;;2.50;;
23519;SDS011;11936;50.820;4.336;2023-09-19T04:35:33;14.23;;;2.90;;
23519;SDS011;11936;50.820;4.336;2023-09-19T04:37:59;8.80;;;2.83;;
23519;SDS011;11936;50.820;4.336;2023-09-19T04:40:26;10.18;;;2.08;;
23519;SDS011;11936;50.820;4.336;2023-09-19T04:45:21;7.55;;;2.65;;
23519;SDS011;11936;50.820;4.336;2023-09-19T04:47:47;11.82;;;2.80;;
23519;SDS011;11936;50.820;4.336;2023-09-19T04:50:13;10.85;;;2.10;;
23519;SDS011;11936;50.820;4.336;2023-09-19T04:52:40;9.02;;;2.35;;
23519;SDS011;11936;50.820;4.336;2023-09-19T04:55:07;20.90;;;3.70;;
23519;SDS011;11936;50.820;4.336;2023-09-19T04:57:41;12.50;;;2.55;;
23519;SDS011;11936;50.820;4.336;2023-09-19T05:00:07;10.57;;;2.53;;
23519;SDS011;11936;50.820;4.336;2023-09-19T05:02:39;13.13;;;2.72;;
23519;SDS011;11936;50.820;4.336;2023-09-19T05:07:33;12.98;;;2.80;;
23519;SDS011;11936;50.820;4.336;2023-09-19T05:09:59;11.00;;;2.13;;
23519;SDS011;11936;50.820;4.336;2023-09-19T05:12:26;10.98;;;2.85;;
23519;SDS011;11936;50.820;4.336;2023-09-19T05:14:52;12.02;;;2.45;;
23519;SDS011;11936;50.820;4.336;2023-09-19T05:17:18;13.75;;;2.90;;
23519;SDS011;11936;50.820;4.336;2023-09-19T05:19:44;9.95;;;2.67;;
23519;SDS011;11936;50.820;4.336;2023-09-19T05:22:11;13.38;;;3.05;;
23519;SDS011;11936;50.820;4.336;2023-09-19T05:24:37;8.57;;;2.40;;
23519;SDS011;11936;50.820;4.336;2023-09-19T05:27:04;10.48;;;2.35;;
23519;SDS011;11936;50.820;4.336;2023-09-19T05:29:29;10.63;;;2.15;;
23519;SDS011;11936;50.820;4.336;2023-09-19T05:31:55;15.27;;;2.97;;
23519;SDS011;11936;50.820;4.336;2023-09-19T05:34:20;17.67;;;3.55;;
23519;SDS011;11936;50.820;4.336;2023-09-19T05:36:46;12.20;;;2.80;;
23519;SDS011;11936;50.820;4.336;2023-09-19T05:39:13;13.32;;;2.42;;
23519;SDS011;11936;50.820;4.336;2023-09-19T05:41:39;8.60;;;2.00;;
23519;SDS011;11936;50.820;4.336;2023-09-19T05:44:05;12.13;;;2.42;;
23519;SDS011;11936;50.820;4.336;2023-09-19T05:46:32;11.70;;;2.50;;
23519;SDS011;11936;50.820;4.336;2023-09-19T05:48:57;17.58;;;2.55;;
23519;SDS011;11936;50.820;4.336;2023-09-19T05:51:23;12.15;;;2.17;;
23519;SDS011;11936;50.820;4.336;2023-09-19T05:53:50;8.73;;;2.17;;
23519;SDS011;11936;50.820;4.336;2023-09-19T05:56:15;11.18;;;2.28;;
23519;SDS011;11936;50.820;4.336;2023-09-19T05:58:44;9.40;;;2.33;;
23519;SDS011;11936;50.820;4.336;2023-09-19T06:01:09;12.07;;;3.40;;
23519;SDS011;11936;50.820;4.336;2023-09-19T06:03:35;5.63;;;1.90;;
23519;SDS011;11936;50.820;4.336;2023-09-19T06:06:04;25.80;;;4.13;;
23519;SDS011;11936;50.820;4.336;2023-09-19T06:08:32;13.32;;;2.70;;
23519;SDS011;11936;50.820;4.336;2023-09-19T06:10:58;8.65;;;2.33;;
23519;SDS011;11936;50.820;4.336;2023-09-19T06:13:24;11.23;;;2.65;;
23519;SDS011;11936;50.820;4.336;2023-09-19T06:15:51;13.40;;;2.42;;
23519;SDS011;11936;50.820;4.336;2023-09-19T06:18:17;10.25;;;2.28;;
23519;SDS011;11936;50.820;4.336;2023-09-19T06:20:48;11.68;;;2.58;;
23519;SDS011;11936;50.820;4.336;2023-09-19T06:23:15;12.70;;;2.55;;
23519;SDS011;11936;50.820;4.336;2023-09-19T06:25:42;8.80;;;2.17;;
23519;SDS011;11936;50.820;4.336;2023-09-19T06:28:11;9.30;;;2.55;;
23519;SDS011;11936;50.820;4.336;2023-09-19T06:30:41;9.88;;;2.35;;
23519;SDS011;11936;50.820;4.336;2023-09-19T06:33:07;12.23;;;2.45;;
23519;SDS011;11936;50.820;4.336;2023-09-19T06:35:33;9.73;;;2.10;;
23519;SDS011;11936;50.820;4.336;2023-09-19T06:38:02;12.88;;;2.70;;
23519;SDS011;11936;50.820;4.336;2023-09-19T06:40:29;11.80;;;2.80;;
23519;SDS011;11936;50.820;4.336;2023-09-19T06:42:56;8.77;;;2.20;;
23519;SDS011;11936;50.820;4.336;2023-09-19T06:45:22;5.95;;;1.80;;
23519;SDS011;11936;50.820;4.336;2023-09-19T06:47:51;8.13;;;2.03;;
23519;SDS011;11936;50.820;4.336;2023-09-19T06:50:17;9.15;;;2.10;;
23519;SDS011;11936;50.820;4.336;2023-09-19T06:52:45;13.15;;;1.77;;
23519;SDS011;11936;50.820;4.336;2023-09-19T06:55:13;10.15;;;1.92;;
23519;SDS011;11936;50.820;4.336;2023-09-19T06:57:41;8.20;;;1.95;;
23519;SDS011;11936;50.820;4.336;2023-09-19T07:00:09;10.52;;;2.60;;
23519;SDS011;11936;50.820;4.336;2023-09-19T07:02:59;14.35;;;2.92;;
23519;SDS011;11936;50.820;4.336;2023-09-19T07:05:33;15.25;;;3.15;;
23519;SDS011;11936;50.820;4.336;2023-09-19T07:08:04;12.50;;;2.22;;
23519;SDS011;11936;50.820;4.336;2023-09-19T07:10:31;7.07;;;2.45;;
23519;SDS011;11936;50.820;4.336;2023-09-19T07:13:01;10.40;;;2.67;;
23519;SDS011;11936;50.820;4.336;2023-09-19T07:15:28;6.50;;;2.35;;
23519;SDS011;11936;50.820;4.336;2023-09-19T07:17:56;12.48;;;2.60;;
23519;SDS011;11936;50.820;4.336;2023-09-19T07:20:22;13.35;;;2.40;;
23519;SDS011;11936;50.820;4.336;2023-09-19T07:22:52;15.95;;;3.67;;
23519;SDS011;11936;50.820;4.336;2023-09-19T07:25:20;8.40;;;2.63;;
23519;SDS011;11936;50.820;4.336;2023-09-19T07:27:46;10.02;;;2.22;;
23519;SDS011;11936;50.820;4.336;2023-09-19T07:30:12;12.25;;;2.45;;
23519;SDS011;11936;50.820;4.336;2023-09-19T07:32:38;7.80;;;2.80;;
23519;SDS011;11936;50.820;4.336;2023-09-19T07:35:04;15.38;;;3.30;;
23519;SDS011;11936;50.820;4.336;2023-09-19T07:37:32;13.40;;;2.47;;
23519;SDS011;11936;50.820;4.336;2023-09-19T07:39:59;13.63;;;2.80;;
23519;SDS011;11936;50.820;4.336;2023-09-19T07:42:26;8.75;;;2.15;;
23519;SDS011;11936;50.820;4.336;2023-09-19T07:44:52;16.77;;;3.10;;
23519;SDS011;11936;50.820;4.336;2023-09-19T07:47:19;9.20;;;2.83;;
23519;SDS011;11936;50.820;4.336;2023-09-19T07:49:46;9.90;;;2.75;;
23519;SDS011;11936;50.820;4.336;2023-09-19T07:52:12;7.78;;;2.30;;
23519;SDS011;11936;50.820;4.336;2023-09-19T07:54:38;10.13;;;2.63;;
23519;SDS011;11936;50.820;4.336;2023-09-19T07:57:06;13.07;;;2.50;;
23519;SDS011;11936;50.820;4.336;2023-09-19T07:59:33;13.38;;;2.50;;
23519;SDS011;11936;50.820;4.336;2023-09-19T08:01:58;16.77;;;2.70;;
23519;SDS011;11936;50.820;4.336;2023-09-19T08:04:25;8.82;;;2.63;;
23519;SDS011;11936;50.820;4.336;2023-09-19T08:06:51;9.93;;;2.83;;
23519;SDS011;11936;50.820;4.336;2023-09-19T08:09:17;16.55;;;2.60;;
23519;SDS011;11936;50.820;4.336;2023-09-19T08:11:46;11.80;;;2.30;;
23519;SDS011;11936;50.820;4.336;2023-09-19T08:14:13;10.45;;;2.83;;
23519;SDS011;11936;50.820;4.336;2023-09-19T08:16:39;14.20;;;3.33;;
23519;SDS011;11936;50.820;4.336;2023-09-19T08:19:05;7.47;;;2.70;;
23519;SDS011;11936;50.820;4.336;2023-09-19T08:21:31;14.75;;;3.38;;
23519;SDS011;11936;50.820;4.336;2023-09-19T08:23:57;11.85;;;2.75;;
23519;SDS011;11936;50.820;4.336;2023-09-19T08:26:22;17.35;;;2.72;;
23519;SDS011;11936;50.820;4.336;2023-09-19T08:28:49;5.78;;;2.05;;
23519;SDS011;11936;50.820;4.336;2023-09-19T08:31:16;17.02;;;2.80;;
23519;SDS011;11936;50.820;4.336;2023-09-19T08:33:42;14.82;;;3.13;;
23519;SDS011;11936;50.820;4.336;2023-09-19T08:36:14;11.18;;;2.65;;
23519;SDS011;11936;50.820;4.336;2023-09-19T08:38:40;7.78;;;2.03;;
23519;SDS011;11936;50.820;4.336;2023-09-19T08:41:06;12.98;;;2.83;;
23519;SDS011;11936;50.820;4.336;2023-09-19T08:43:33;16.33;;;2.67;;
23519;SDS011;11936;50.820;4.336;2023-09-19T08:46:07;16.15;;;2.60;;
23519;SDS011;11936;50.820;4.336;2023-09-19T08:48:39;12.13;;;2.00;;
23519;SDS011;11936;50.820;4.336;2023-09-19T08:51:07;9.95;;;2.97;;
23519;SDS011;11936;50.820;4.336;2023-09-19T08:56:36;13.70;;;2.67;;
23519;SDS011;11936;50.820;4.336;2023-09-19T08:59:04;13.20;;;2.78;;
23519;SDS011;11936;50.820;4.336;2023-09-19T09:01:37;15.02;;;2.60;;
23519;SDS011;11936;50.820;4.336;2023-09-19T09:04:05;13.70;;;2.13;;
23519;SDS011;11936;50.820;4.336;2023-09-19T09:06:34;6.35;;;2.13;;
23519;SDS011;11936;50.820;4.336;2023-09-19T09:09:01;15.20;;;3.13;;
23519;SDS011;11936;50.820;4.336;2023-09-19T09:11:28;13.95;;;2.20;;
23519;SDS011;11936;50.820;4.336;2023-09-19T09:13:58;9.70;;;2.25;;
23519;SDS011;11936;50.820;4.336;2023-09-19T09:16:23;15.90;;;2.35;;
23519;SDS011;11936;50.820;4.336;2023-09-19T09:18:50;9.52;;;2.05;;
23519;SDS011;11936;50.820;4.336;2023-09-19T09:21:17;11.25;;;2.30;;
23519;SDS011;11936;50.820;4.336;2023-09-19T09:23:43;5.60;;;2.10;;
23519;SDS011;11936;50.820;4.336;2023-09-19T09:26:09;9.77;;;2.17;;
23519;SDS011;11936;50.820;4.336;2023-09-19T09:28:35;11.45;;;2.25;;
23519;SDS011;11936;50.820;4.336;2023-09-19T09:31:04;8.60;;;2.33;;
23519;SDS011;11936;50.820;4.336;2023-09-19T09:33:37;11.93;;;2.03;;
23519;SDS011;11936;50.820;4.336;2023-09-19T09:36:04;11.70;;;2.55;;
23519;SDS011;11936;50.820;4.336;2023-09-19T09:38:47;5.10;;;1.83;;
23519;SDS011;11936;50.820;4.336;2023-09-19T09:41:15;11.23;;;2.20;;
23519;SDS011;11936;50.820;4.336;2023-09-19T09:43:52;12.88;;;2.53;;
23519;SDS011;11936;50.820;4.336;2023-09-19T09:46:19;11.48;;;2.42;;
23519;SDS011;11936;50.820;4.336;2023-09-19T09:48:46;7.65;;;1.92;;
23519;SDS011;11936;50.820;4.336;2023-09-19T09:51:33;10.40;;;1.80;;
23519;SDS011;11936;50.820;4.336;2023-09-19T09:54:15;7.55;;;2.38;;
23519;SDS011;11936;50.820;4.336;2023-09-19T09:56:54;7.97;;;2.13;;
23519;SDS011;11936;50.820;4.336;2023-09-19T10:05:03;8.68;;;2.22;;
23519;SDS011;11936;50.820;4.336;2023-09-19T10:07:52;8.57;;;1.95;;
23519;SDS011;11936;50.820;4.336;2023-09-19T10:10:37;12.40;;;2.88;;
23519;SDS011;11936;50.820;4.336;2023-09-19T10:13:06;10.17;;;1.90;;
23519;SDS011;11936;50.820;4.336;2023-09-19T10:15:37;13.25;;;2.10;;
23519;SDS011;11936;50.820;4.336;2023-09-19T10:20:33;11.80;;;1.38;;
23519;SDS011;11936;50.820;4.336;2023-09-19T10:23:04;8.95;;;1.92;;
23519;SDS011;11936;50.820;4.336;2023-09-19T10:25:37;7.30;;;1.98;;
23519;SDS011;11936;50.820;4.336;2023-09-19T10:28:05;9.38;;;1.88;;
23519;SDS011;11936;50.820;4.336;2023-09-19T10:30:40;6.60;;;2.22;;
23519;SDS011;11936;50.820;4.336;2023-09-19T10:33:12;7.38;;;1.90;;
23519;SDS011;11936;50.820;4.336;2023-09-19T10:35:40;9.65;;;1.88;;
23519;SDS011;11936;50.820;4.336;2023-09-19T10:38:10;7.75;;;1.75;;
23519;SDS011;11936;50.820;4.336;2023-09-19T10:40:37;8.30;;;1.60;;
23519;SDS011;11936;50.820;4.336;2023-09-19T10:43:11;8.27;;;2.13;;
23519;SDS011;11936;50.820;4.336;2023-09-19T10:45:42;4.75;;;1.55;;
23519;SDS011;11936;50.820;4.336;2023-09-19T10:48:10;7.40;;;1.60;;
23519;SDS011;11936;50.820;4.336;2023-09-19T10:50:41;4.60;;;1.65;;
23519;SDS011;11936;50.820;4.336;2023-09-19T10:53:17;10.77;;;1.75;;
23519;SDS011;11936;50.820;4.336;2023-09-19T10:55:50;5.97;;;1.50;;
23519;SDS011;11936;50.820;4.336;2023-09-19T10:58:28;8.65;;;1.88;;
23519;SDS011;11936;50.820;4.336;2023-09-19T11:00:59;8.65;;;1.52;;
23519;SDS011;11936;50.820;4.336;2023-09-19T11:03:37;8.15;;;1.60;;
23519;SDS011;11936;50.820;4.336;2023-09-19T11:06:12;7.13;;;1.73;;
23519;SDS011;11936;50.820;4.336;2023-09-19T11:20:15;5.80;;;1.20;;
23519;SDS011;11936;50.820;4.336;2023-09-19T11:28:28;4.90;;;1.23;;
23519;SDS011;11936;50.820;4.336;2023-09-19T11:30:50;5.28;;;1.08;;
23519;SDS011;11936;50.820;4.336;2023-09-19T11:36:09;7.03;;;1.35;;
23519;SDS011;11936;50.820;4.336;2023-09-19T11:41:49;5.30;;;1.05;;
23519;SDS011;11936;50.820;4.336;2023-09-19T11:46:32;5.50;;;1.30;;
23519;SDS011;11936;50.820;4.336;2023-09-19T11:49:05;8.13;;;1.20;;
23519;SDS011;11936;50.820;4.336;2023-09-19T11:51:41;2.58;;;1.15;;
23519;SDS011;11936;50.820;4.336;2023-09-19T11:54:13;7.55;;;1.23;;
23519;SDS011;11936;50.820;4.336;2023-09-19T11:56:43;2.30;;;1.02;;
23519;SDS011;11936;50.820;4.336;2023-09-19T11:59:10;4.72;;;1.35;;
23519;SDS011;11936;50.820;4.336;2023-09-19T12:01:36;5.25;;;1.30;;
23519;SDS011;11936;50.820;4.336;2023-09-19T12:04:08;8.75;;;1.50;;
23519;SDS011;11936;50.820;4.336;2023-09-19T12:06:37;1.92;;;1.02;;
23519;SDS011;11936;50.820;4.336;2023-09-19T12:09:12;6.57;;;1.20;;
23519;SDS011;11936;50.820;4.336;2023-09-19T12:11:42;7.22;;;1.80;;
23519;SDS011;11936;50.820;4.336;2023-09-19T12:14:11;9.85;;;1.63;;
23519;SDS011;11936;50.820;4.336;2023-09-19T12:16:50;8.65;;;1.50;;
23519;SDS011;11936;50.820;4.336;2023-09-19T12:19:20;7.47;;;1.70;;
23519;SDS011;11936;50.820;4.336;2023-09-19T12:24:29;5.30;;;1.30;;
23519;SDS011;11936;50.820;4.336;2023-09-19T12:27:02;3.05;;;1.10;;
23519;SDS011;11936;50.820;4.336;2023-09-19T12:29:41;9.23;;;1.60;;
23519;SDS011;11936;50.820;4.336;2023-09-19T12:32:11;4.32;;;1.35;;
23519;SDS011;11936;50.820;4.336;2023-09-19T12:34:38;7.30;;;1.15;;
23519;SDS011;11936;50.820;4.336;2023-09-19T12:37:10;6.53;;;1.20;;
23519;SDS011;11936;50.820;4.336;2023-09-19T12:39:40;8.63;;;1.55;;
23519;SDS011;11936;50.820;4.336;2023-09-19T12:42:10;9.73;;;1.30;;
23519;SDS011;11936;50.820;4.336;2023-09-19T12:44:46;5.95;;;1.48;;
23519;SDS011;11936;50.820;4.336;2023-09-19T12:47:21;4.88;;;1.05;;
23519;SDS011;11936;50.820;4.336;2023-09-19T12:50:04;4.13;;;1.50;;
23519;SDS011;11936;50.820;4.336;2023-09-19T12:52:48;7.32;;;1.90;;
23519;SDS011;11936;50.820;4.336;2023-09-19T12:55:22;8.95;;;1.75;;
23519;SDS011;11936;50.820;4.336;2023-09-19T12:58:22;6.00;;;1.67;;
23519;SDS011;11936;50.820;4.336;2023-09-19T13:00:42;2.50;;;1.25;;
23519;SDS011;11936;50.820;4.336;2023-09-19T13:05:51;15.75;;;1.60;;
23519;SDS011;11936;50.820;4.336;2023-09-19T13:08:20;5.13;;;1.50;;
23519;SDS011;11936;50.820;4.336;2023-09-19T13:11:00;13.77;;;1.50;;
23519;SDS011;11936;50.820;4.336;2023-09-19T13:16:20;2.80;;;1.10;;
23519;SDS011;11936;50.820;4.336;2023-09-19T13:18:48;4.95;;;1.40;;
23519;SDS011;11936;50.820;4.336;2023-09-19T13:21:16;4.72;;;1.20;;
23519;SDS011;11936;50.820;4.336;2023-09-19T13:23:52;5.03;;;1.10;;
23519;SDS011;11936;50.820;4.336;2023-09-19T13:26:23;6.10;;;1.63;;
23519;SDS011;11936;50.820;4.336;2023-09-19T13:28:53;4.85;;;1.15;;
23519;SDS011;11936;50.820;4.336;2023-09-19T13:31:19;7.55;;;1.80;;
23519;SDS011;11936;50.820;4.336;2023-09-19T13:33:45;5.18;;;1.55;;
23519;SDS011;11936;50.820;4.336;2023-09-19T13:36:13;8.50;;;1.38;;
23519;SDS011;11936;50.820;4.336;2023-09-19T13:38:42;3.17;;;1.30;;
23519;SDS011;11936;50.820;4.336;2023-09-19T13:41:12;4.60;;;1.35;;
23519;SDS011;11936;50.820;4.336;2023-09-19T13:43:38;8.68;;;1.50;;
23519;SDS011;11936;50.820;4.336;2023-09-19T13:46:04;5.18;;;1.60;;
23519;SDS011;11936;50.820;4.336;2023-09-19T13:48:32;4.97;;;1.42;;
23519;SDS011;11936;50.820;4.336;2023-09-19T13:51:00;6.75;;;1.60;;
23519;SDS011;11936;50.820;4.336;2023-09-19T13:53:27;4.23;;;1.23;;
23519;SDS011;11936;50.820;4.336;2023-09-19T13:55:53;10.05;;;1.30;;
23519;SDS011;11936;50.820;4.336;2023-09-19T13:58:19;4.97;;;1.92;;
23519;SDS011;11936;50.820;4.336;2023-09-19T14:00:46;8.50;;;1.80;;
23519;SDS011;11936;50.820;4.336;2023-09-19T14:03:12;5.60;;;2.00;;
23519;SDS011;11936;50.820;4.336;2023-09-19T14:05:37;5.20;;;1.33;;
23519;SDS011;11936;50.820;4.336;2023-09-19T14:08:03;3.85;;;1.55;;
23519;SDS011;11936;50.820;4.336;2023-09-19T14:10:29;2.67;;;1.38;;
23519;SDS011;11936;50.820;4.336;2023-09-19T14:12:56;6.80;;;1.70;;
23519;SDS011;11936;50.820;4.336;2023-09-19T14:15:24;4.50;;;1.52;;
23519;SDS011;11936;50.820;4.336;2023-09-19T14:17:54;4.90;;;1.38;;
23519;SDS011;11936;50.820;4.336;2023-09-19T14:20:21;5.15;;;1.48;;
23519;SDS011;11936;50.820;4.336;2023-09-19T14:22:48;2.35;;;1.30;;
23519;SDS011;11936;50.820;4.336;2023-09-19T14:25:13;3.45;;;1.23;;
23519;SDS011;11936;50.820;4.336;2023-09-19T14:27:39;5.57;;;1.50;;
23519;SDS011;11936;50.820;4.336;2023-09-19T14:30:05;5.65;;;1.70;;
23519;SDS011;11936;50.820;4.336;2023-09-19T14:32:31;4.10;;;1.30;;
23519;SDS011;11936;50.820;4.336;2023-09-19T14:34:57;5.97;;;1.73;;
23519;SDS011;11936;50.820;4.336;2023-09-19T14:37:22;7.32;;;1.75;;
23519;SDS011;11936;50.820;4.336;2023-09-19T14:39:48;4.60;;;1.55;;
23519;SDS011;11936;50.820;4.336;2023-09-19T14:42:14;4.03;;;1.42;;
23519;SDS011;11936;50.820;4.336;2023-09-19T14:44:42;5.30;;;1.55;;
23519;SDS011;11936;50.820;4.336;2023-09-19T14:47:08;8.45;;;1.58;;
23519;SDS011;11936;50.820;4.336;2023-09-19T14:49:34;4.75;;;1.70;;
23519;SDS011;11936;50.820;4.336;2023-09-19T14:52:03;4.88;;;1.42;;
23519;SDS011;11936;50.820;4.336;2023-09-19T14:54:29;6.03;;;1.70;;
23519;SDS011;11936;50.820;4.336;2023-09-19T14:56:56;8.15;;;1.88;;
23519;SDS011;11936;50.820;4.336;2023-09-19T14:59:32;9.43;;;2.15;;
23519;SDS011;11936;50.820;4.336;2023-09-19T15:01:59;8.15;;;1.70;;
23519;SDS011;11936;50.820;4.336;2023-09-19T15:04:25;8.50;;;1.73;;
23519;SDS011;11936;50.820;4.336;2023-09-19T15:06:52;6.13;;;1.92;;
23519;SDS011;11936;50.820;4.336;2023-09-19T15:09:19;5.03;;;1.98;;
23519;SDS011;11936;50.820;4.336;2023-09-19T15:11:50;6.32;;;1.52;;
23519;SDS011;11936;50.820;4.336;2023-09-19T15:14:17;3.63;;;1.52;;
23519;SDS011;11936;50.820;4.336;2023-09-19T15:16:43;8.30;;;2.20;;
23519;SDS011;11936;50.820;4.336;2023-09-19T15:19:09;8.32;;;1.60;;
23519;SDS011;11936;50.820;4.336;2023-09-19T15:21:35;7.50;;;1.73;;
23519;SDS011;11936;50.820;4.336;2023-09-19T15:24:02;8.85;;;1.70;;
23519;SDS011;11936;50.820;4.336;2023-09-19T15:26:28;6.65;;;1.67;;
23519;SDS011;11936;50.820;4.336;2023-09-19T15:28:55;6.43;;;1.65;;
23519;SDS011;11936;50.820;4.336;2023-09-19T15:31:21;6.95;;;1.60;;
23519;SDS011;11936;50.820;4.336;2023-09-19T15:33:47;6.40;;;1.40;;
23519;SDS011;11936;50.820;4.336;2023-09-19T15:36:15;3.30;;;1.20;;
23519;SDS011;11936;50.820;4.336;2023-09-19T15:38:59;5.88;;;1.92;;
23519;SDS011;11936;50.820;4.336;2023-09-19T15:41:35;4.28;;;1.20;;
23519;SDS011;11936;50.820;4.336;2023-09-19T15:44:12;8.70;;;1.50;;
23519;SDS011;11936;50.820;4.336;2023-09-19T15:46:40;3.35;;;1.23;;
23519;SDS011;11936;50.820;4.336;2023-09-19T15:49:06;3.45;;;1.67;;
23519;SDS011;11936;50.820;4.336;2023-09-19T15:51:32;5.72;;;1.42;;
23519;SDS011;11936;50.820;4.336;2023-09-19T15:53:58;2.55;;;1.17;;
23519;SDS011;11936;50.820;4.336;2023-09-19T15:56:27;6.18;;;1.65;;
23519;SDS011;11936;50.820;4.336;2023-09-19T15:58:53;4.47;;;1.95;;
23519;SDS011;11936;50.820;4.336;2023-09-19T16:01:20;9.02;;;1.90;;